createdAt,value
2022-12-31T00:01:01.581Z,79434.91
2022-12-31T00:02:34.396Z,79440.84
2022-12-31T00:04:07.409Z,79434.91
2022-12-31T00:05:40.914Z,79428.97
2022-12-31T00:07:13.638Z,79436.91
2022-12-31T00:08:46.498Z,79440.84
2022-12-31T00:10:19.299Z,79430.97
2022-12-31T00:11:54.044Z,79421.06
2022-12-31T00:13:26.609Z,79454.72
2022-12-31T00:14:59.257Z,79444.81
2022-12-31T00:16:33.262Z,79456.69
2022-12-31T00:18:06.237Z,79460.66
2022-12-31T00:19:39.140Z,79476.47
2022-12-31T00:21:12.189Z,79468.56
2022-12-31T00:22:44.969Z,79462.63
2022-12-31T00:24:17.719Z,79456.69
2022-12-31T00:25:50.408Z,79466.59
2022-12-31T00:27:23.038Z,79492.31
2022-12-31T00:28:56.444Z,79520.00
2022-12-31T00:30:29.317Z,79504.19
2022-12-31T00:32:02.007Z,79500.22
2022-12-31T00:33:34.657Z,79498.25
2022-12-31T00:35:07.580Z,79510.13
2022-12-31T00:36:40.542Z,79492.31
2022-12-31T00:38:13.118Z,79500.22
2022-12-31T00:39:45.788Z,79504.19
2022-12-31T00:41:19.258Z,79480.44
2022-12-31T00:42:52.076Z,79490.31
2022-12-31T00:44:24.645Z,79496.25
2022-12-31T00:45:57.213Z,79498.25
2022-12-31T00:47:30.192Z,79496.25
2022-12-31T00:49:03.235Z,79492.31
2022-12-31T00:50:35.788Z,79518.03
2022-12-31T00:52:08.320Z,79500.22
2022-12-31T00:53:41.141Z,79504.19
2022-12-31T00:55:13.889Z,79494.28
2022-12-31T00:56:46.651Z,79478.44
2022-12-31T00:58:19.579Z,79500.22
2022-12-31T00:59:52.369Z,79488.34
2022-12-31T01:01:26.353Z,79494.28
2022-12-31T01:02:59.156Z,79504.19
2022-12-31T01:04:32.262Z,79496.25
2022-12-31T01:06:05.493Z,79504.19
2022-12-31T01:07:38.523Z,79500.22
2022-12-31T01:09:12.300Z,79510.13
2022-12-31T01:11:07.325Z,79504.19
2022-12-31T01:12:40.267Z,79508.13
2022-12-31T01:14:14.408Z,79525.94
2022-12-31T01:15:47.046Z,79531.88
2022-12-31T01:17:19.688Z,79523.97
2022-12-31T01:18:52.759Z,79529.91
2022-12-31T01:20:25.614Z,79527.94
2022-12-31T01:21:58.581Z,79516.06
2022-12-31T01:23:31.499Z,79510.13
2022-12-31T01:25:04.321Z,79523.97
2022-12-31T01:26:37.442Z,79533.84
2022-12-31T01:28:10.218Z,79523.97
2022-12-31T01:29:42.915Z,79520.00
2022-12-31T01:31:18.053Z,79506.16
2022-12-31T01:32:50.797Z,79492.31
2022-12-31T01:34:23.490Z,79490.31
2022-12-31T01:35:56.309Z,79492.31
2022-12-31T01:37:28.998Z,79488.34
2022-12-31T01:39:02.668Z,79492.31
2022-12-31T01:40:39.251Z,79494.28
2022-12-31T01:42:12.409Z,79490.31
2022-12-31T01:43:45.275Z,79488.34
2022-12-31T01:45:17.937Z,79520.00
2022-12-31T01:46:58.602Z,79516.06
2022-12-31T01:48:31.190Z,79520.00
2022-12-31T01:50:07.021Z,79502.19
2022-12-31T01:51:41.072Z,79500.22
2022-12-31T01:53:14.778Z,79496.25
2022-12-31T01:54:50.514Z,79490.31
2022-12-31T01:56:24.325Z,79508.13
2022-12-31T01:57:59.737Z,79522.00
2022-12-31T01:59:33.393Z,79529.91
2022-12-31T02:01:07.203Z,79529.91
2022-12-31T02:02:40.120Z,79533.84
2022-12-31T02:04:14.115Z,79520.00
2022-12-31T02:06:00.180Z,79523.97
2022-12-31T02:07:32.956Z,79516.06
2022-12-31T02:09:05.739Z,79516.06
2022-12-31T02:10:38.567Z,79529.91
2022-12-31T02:12:11.242Z,79516.06
2022-12-31T02:13:43.891Z,79523.97
2022-12-31T02:15:17.244Z,79516.06
2022-12-31T02:16:56.885Z,79535.84
2022-12-31T02:18:29.613Z,79535.84
2022-12-31T02:20:20.898Z,79585.31
2022-12-31T02:22:12.977Z,79620.94
2022-12-31T02:23:53.437Z,79597.19
2022-12-31T02:25:29.048Z,79620.94
2022-12-31T02:27:15.370Z,79634.78
2022-12-31T02:28:50.753Z,79646.66
2022-12-31T02:30:25.081Z,79662.50
2022-12-31T02:32:03.337Z,79650.63
2022-12-31T02:33:38.954Z,79664.47
2022-12-31T02:35:12.099Z,79648.63
2022-12-31T02:36:47.426Z,79638.75
2022-12-31T02:38:23.456Z,79640.72
2022-12-31T02:39:56.897Z,79644.69
2022-12-31T02:41:48.043Z,79640.72
2022-12-31T02:43:20.734Z,79634.78
2022-12-31T02:44:53.346Z,79628.84
2022-12-31T02:46:31.798Z,79628.84
2022-12-31T02:48:10.311Z,79644.69
2022-12-31T02:49:52.134Z,79676.34
2022-12-31T02:51:39.388Z,79688.22
2022-12-31T02:53:30.472Z,79688.22
2022-12-31T02:55:15.220Z,79684.25
2022-12-31T02:57:08.144Z,79672.38
2022-12-31T02:59:34.880Z,79666.44
2022-12-31T03:01:26.331Z,79678.31
2022-12-31T03:03:00.337Z,79713.94
2022-12-31T03:04:34.380Z,79727.78
2022-12-31T03:06:08.512Z,79727.78
2022-12-31T03:07:41.897Z,79702.06
2022-12-31T03:09:14.557Z,79684.25
2022-12-31T03:10:47.224Z,79692.16
2022-12-31T03:12:39.869Z,79686.25
2022-12-31T03:14:12.602Z,79686.25
2022-12-31T03:15:45.405Z,79717.91
2022-12-31T03:17:18.139Z,79757.47
2022-12-31T03:19:09.207Z,79723.84
2022-12-31T03:21:03.311Z,79721.84
2022-12-31T03:22:38.290Z,79731.75
2022-12-31T03:24:29.242Z,79713.94
2022-12-31T03:26:02.111Z,79706.03
2022-12-31T03:27:34.824Z,79704.03
2022-12-31T03:29:07.463Z,79706.03
2022-12-31T03:30:42.647Z,79717.91
2022-12-31T03:32:15.858Z,79713.94
2022-12-31T03:33:48.455Z,79709.97
2022-12-31T03:35:22.014Z,79706.03
2022-12-31T03:36:54.594Z,79706.03
2022-12-31T03:38:27.507Z,79698.09
2022-12-31T03:40:00.311Z,79688.22
2022-12-31T03:41:32.863Z,79682.28
2022-12-31T03:43:05.895Z,79680.28
2022-12-31T03:44:39.798Z,79662.50
2022-12-31T03:46:12.583Z,79678.31
2022-12-31T03:47:45.420Z,79682.28
2022-12-31T03:49:18.122Z,79680.28
2022-12-31T03:50:50.766Z,79680.28
2022-12-31T03:52:23.435Z,79682.28
2022-12-31T03:53:56.082Z,79670.41
2022-12-31T03:55:28.771Z,79682.28
2022-12-31T03:57:01.741Z,79676.34
2022-12-31T03:58:34.641Z,79690.19
2022-12-31T04:00:08.727Z,79682.28
2022-12-31T04:01:41.751Z,79678.31
2022-12-31T04:03:14.674Z,79678.31
2022-12-31T04:04:47.395Z,79694.16
2022-12-31T04:06:20.492Z,79682.28
2022-12-31T04:07:54.004Z,79686.25
2022-12-31T04:09:26.756Z,79694.16
2022-12-31T04:10:59.425Z,79702.06
2022-12-31T04:12:32.069Z,79713.94
2022-12-31T04:14:04.689Z,79721.84
2022-12-31T04:15:37.630Z,79715.91
2022-12-31T04:17:10.259Z,79717.91
2022-12-31T04:18:42.969Z,79721.84
2022-12-31T04:20:16.547Z,79725.81
2022-12-31T04:21:49.275Z,79729.78
2022-12-31T04:23:21.965Z,79715.91
2022-12-31T04:24:55.213Z,79715.91
2022-12-31T04:26:28.816Z,79709.97
2022-12-31T04:28:01.751Z,79733.72
2022-12-31T04:29:34.763Z,79733.72
2022-12-31T04:31:07.331Z,79743.63
2022-12-31T04:32:39.862Z,79741.66
2022-12-31T04:34:12.597Z,79749.56
2022-12-31T04:35:45.222Z,79749.56
2022-12-31T04:37:17.982Z,79749.56
2022-12-31T04:38:50.537Z,79779.25
2022-12-31T04:40:23.170Z,79785.19
2022-12-31T04:41:55.765Z,79812.88
2022-12-31T04:43:28.577Z,79797.06
2022-12-31T04:45:01.212Z,79789.13
2022-12-31T04:46:35.280Z,79791.13
2022-12-31T04:48:08.024Z,79806.94
2022-12-31T04:49:40.750Z,79801.00
2022-12-31T04:51:13.904Z,79791.13
2022-12-31T04:52:46.783Z,79785.19
2022-12-31T04:54:19.491Z,79816.84
2022-12-31T04:55:52.532Z,79812.88
2022-12-31T04:57:25.332Z,79822.78
2022-12-31T04:58:58.257Z,79824.75
2022-12-31T05:00:30.881Z,79822.78
2022-12-31T05:02:03.948Z,79820.81
2022-12-31T05:03:37.027Z,79820.81
2022-12-31T05:05:10.589Z,79838.63
2022-12-31T05:06:43.892Z,79830.69
2022-12-31T05:08:17.800Z,79842.56
2022-12-31T05:09:50.905Z,79824.75
2022-12-31T05:11:23.705Z,79812.88
2022-12-31T05:12:56.397Z,79797.06
2022-12-31T05:14:29.081Z,79757.47
2022-12-31T05:16:02.442Z,79711.97
2022-12-31T05:17:35.131Z,79650.63
2022-12-31T05:19:09.891Z,79626.88
2022-12-31T05:20:42.575Z,79618.94
2022-12-31T05:22:30.424Z,79615.00
2022-12-31T05:24:03.189Z,79597.19
2022-12-31T05:25:36.154Z,79613.00
2022-12-31T05:27:09.848Z,79597.19
2022-12-31T05:28:42.924Z,79516.06
2022-12-31T05:30:15.610Z,79458.66
2022-12-31T05:31:48.141Z,79432.94
2022-12-31T05:33:21.475Z,79409.19
2022-12-31T05:34:54.773Z,79363.69
2022-12-31T05:36:27.424Z,79282.56
2022-12-31T05:38:00.793Z,79258.81
2022-12-31T05:40:07.250Z,79235.06
2022-12-31T05:41:40.030Z,79175.72
2022-12-31T05:43:12.743Z,79112.38
2022-12-31T05:44:45.519Z,79082.72
2022-12-31T05:46:18.172Z,79064.91
2022-12-31T05:47:51.046Z,79029.28
2022-12-31T05:49:23.642Z,79009.50
2022-12-31T05:50:56.336Z,79003.56
2022-12-31T05:52:29.037Z,78995.66
2022-12-31T05:54:02.118Z,78962.00
2022-12-31T05:55:34.804Z,78965.97
2022-12-31T05:57:07.758Z,78999.59
2022-12-31T05:58:40.348Z,79049.06
2022-12-31T06:00:13.289Z,79051.06
2022-12-31T06:01:48.891Z,79076.78
2022-12-31T06:03:21.797Z,79211.31
2022-12-31T06:04:54.596Z,79272.66
2022-12-31T06:06:27.611Z,79324.09
2022-12-31T06:08:01.808Z,79282.56
2022-12-31T06:09:35.092Z,79308.28
2022-12-31T06:11:08.011Z,79266.72
2022-12-31T06:12:40.689Z,79193.50
2022-12-31T06:14:13.416Z,79153.94
2022-12-31T06:15:46.201Z,79155.91
2022-12-31T06:17:19.439Z,79142.06
2022-12-31T06:18:53.274Z,79100.53
2022-12-31T06:20:26.143Z,79021.38
2022-12-31T06:21:59.039Z,79031.25
2022-12-31T06:23:31.788Z,79086.66
2022-12-31T06:25:04.823Z,79041.16
2022-12-31T06:26:38.465Z,79116.34
2022-12-31T06:28:16.138Z,79084.69
2022-12-31T06:29:52.530Z,79031.25
2022-12-31T06:31:25.759Z,78971.91
2022-12-31T06:32:58.659Z,78954.09
2022-12-31T06:34:31.277Z,78942.22
2022-12-31T06:36:05.345Z,78983.78
2022-12-31T06:37:38.342Z,78989.72
2022-12-31T06:39:11.020Z,79009.50
2022-12-31T06:40:43.946Z,79027.31
2022-12-31T06:42:16.964Z,79057.00
2022-12-31T06:43:49.836Z,79080.72
2022-12-31T06:45:22.462Z,79090.63
2022-12-31T06:46:55.200Z,79106.44
2022-12-31T06:48:27.873Z,79146.03
2022-12-31T06:50:01.231Z,79140.09
2022-12-31T06:51:34.021Z,79165.81
2022-12-31T06:53:07.054Z,79163.84
2022-12-31T06:54:39.851Z,79181.63
2022-12-31T06:56:26.485Z,79235.06
2022-12-31T06:58:03.347Z,79237.03
2022-12-31T06:59:36.753Z,79246.94
2022-12-31T07:01:28.437Z,79227.16
2022-12-31T07:03:07.715Z,79262.78
2022-12-31T07:04:59.191Z,79314.22
2022-12-31T07:06:34.990Z,79359.72
2022-12-31T07:08:26.240Z,79316.19
2022-12-31T07:10:07.956Z,79284.53
2022-12-31T07:11:54.591Z,79264.75
2022-12-31T07:13:45.725Z,79343.91
2022-12-31T07:15:36.963Z,79351.81
2022-12-31T07:17:35.826Z,79341.91
2022-12-31T07:19:14.771Z,79343.91
2022-12-31T07:20:47.889Z,79351.81
2022-12-31T07:22:21.100Z,79332.03
2022-12-31T07:23:57.531Z,79345.88
2022-12-31T07:25:38.688Z,79318.16
2022-12-31T07:27:14.610Z,79320.16
2022-12-31T07:28:50.896Z,79334.00
2022-12-31T07:30:29.870Z,79337.97
2022-12-31T07:32:02.732Z,79320.16
2022-12-31T07:33:56.010Z,79318.16
2022-12-31T07:35:35.672Z,79298.38
2022-12-31T07:37:13.830Z,79296.41
2022-12-31T07:38:46.766Z,79302.34
2022-12-31T07:40:28.517Z,79292.44
2022-12-31T07:42:09.958Z,79326.09
2022-12-31T07:44:00.498Z,79318.16
2022-12-31T07:45:45.867Z,79310.25
2022-12-31T07:47:23.763Z,79294.44
2022-12-31T07:48:57.505Z,79286.50
2022-12-31T07:50:30.405Z,79274.63
2022-12-31T07:52:03.358Z,79280.56
2022-12-31T07:53:36.372Z,79286.50
2022-12-31T07:55:10.403Z,79298.38
2022-12-31T07:56:44.253Z,79276.63
2022-12-31T07:58:22.766Z,79298.38
2022-12-31T08:00:07.914Z,79284.53
2022-12-31T08:02:00.348Z,79278.59
2022-12-31T08:03:49.844Z,79312.25
2022-12-31T08:05:42.511Z,79290.47
2022-12-31T08:09:25.298Z,79274.63
2022-12-31T08:11:11.016Z,79282.56
2022-12-31T08:12:51.879Z,79286.50
2022-12-31T08:14:26.368Z,79286.50
2022-12-31T08:16:00.919Z,79290.47
2022-12-31T08:17:34.774Z,79308.28
2022-12-31T08:19:14.699Z,79320.16
2022-12-31T08:20:59.130Z,79322.13
2022-12-31T08:22:44.531Z,79326.09
2022-12-31T08:24:17.665Z,79332.03
2022-12-31T08:25:53.267Z,79318.16
2022-12-31T08:27:32.340Z,79328.06
2022-12-31T08:29:28.745Z,79316.19
2022-12-31T08:31:04.487Z,79332.03
2022-12-31T08:32:43.527Z,79326.09
2022-12-31T08:34:22.074Z,79353.78
2022-12-31T08:36:05.068Z,79353.78
2022-12-31T08:37:40.189Z,79359.72
2022-12-31T08:39:15.782Z,79365.66
2022-12-31T08:40:55.108Z,79349.84
2022-12-31T08:42:42.295Z,79365.66
2022-12-31T08:44:26.933Z,79369.63
2022-12-31T08:46:00.069Z,79395.34
2022-12-31T08:47:42.804Z,79397.31
2022-12-31T08:49:15.857Z,79395.34
2022-12-31T08:50:49.506Z,79383.47
2022-12-31T08:52:27.289Z,79385.44
2022-12-31T08:54:03.220Z,79383.47
2022-12-31T08:55:36.360Z,79377.53
2022-12-31T08:57:24.097Z,79391.38
2022-12-31T08:58:56.681Z,79385.44
2022-12-31T09:00:30.577Z,79381.50
2022-12-31T09:02:22.202Z,79389.41
2022-12-31T09:03:57.697Z,79393.38
2022-12-31T09:05:39.459Z,79425.03
2022-12-31T09:07:12.860Z,79411.19
2022-12-31T09:08:45.452Z,79407.22
2022-12-31T09:10:18.142Z,79397.31
2022-12-31T09:11:51.227Z,79385.44
2022-12-31T09:13:53.717Z,79395.34
2022-12-31T09:15:47.914Z,79397.31
2022-12-31T09:17:21.059Z,79373.56
2022-12-31T09:18:53.839Z,79405.25
2022-12-31T09:20:42.228Z,79387.44
2022-12-31T09:22:15.945Z,79387.44
2022-12-31T09:23:48.739Z,79421.06
2022-12-31T09:25:23.109Z,79409.19
2022-12-31T09:27:06.525Z,79409.19
2022-12-31T09:28:39.106Z,79436.91
2022-12-31T09:30:13.090Z,79393.38
2022-12-31T09:31:54.575Z,79399.31
2022-12-31T09:33:27.637Z,79389.41
2022-12-31T09:35:19.160Z,79421.06
2022-12-31T09:37:10.274Z,79446.78
2022-12-31T09:38:54.324Z,79448.78
2022-12-31T09:40:40.924Z,79498.25
2022-12-31T09:42:13.880Z,79492.31
2022-12-31T09:43:46.637Z,79436.91
2022-12-31T09:45:20.368Z,79438.88
2022-12-31T09:47:01.913Z,79452.72
2022-12-31T09:48:51.259Z,79405.25
2022-12-31T09:50:27.036Z,79397.31
2022-12-31T09:52:12.469Z,79411.19
2022-12-31T09:53:55.232Z,79405.25
2022-12-31T09:55:27.837Z,79409.19
2022-12-31T09:57:06.761Z,79405.25
2022-12-31T09:58:49.821Z,79409.19
2022-12-31T10:00:26.832Z,79428.97
2022-12-31T10:02:18.359Z,79417.13
2022-12-31T10:04:03.219Z,79427.00
2022-12-31T10:05:46.172Z,79450.75
2022-12-31T10:07:22.494Z,79474.50
2022-12-31T10:09:22.215Z,79444.81
2022-12-31T10:10:59.288Z,79484.38
2022-12-31T10:12:38.183Z,79500.22
2022-12-31T10:14:13.968Z,79494.28
2022-12-31T10:16:05.550Z,79510.13
2022-12-31T10:17:56.768Z,79525.94
2022-12-31T10:19:35.448Z,79516.06
2022-12-31T10:21:22.013Z,79510.13
2022-12-31T10:23:18.001Z,79478.44
2022-12-31T10:25:00.176Z,79516.06
2022-12-31T10:26:53.424Z,79539.81
2022-12-31T10:28:44.966Z,79559.59
2022-12-31T10:30:19.064Z,79555.63
2022-12-31T10:32:14.720Z,79559.59
2022-12-31T10:33:47.355Z,79525.94
2022-12-31T10:35:29.760Z,79525.94
2022-12-31T10:37:02.545Z,79539.81
2022-12-31T10:38:47.487Z,79573.44
2022-12-31T10:40:35.463Z,79559.59
2022-12-31T10:42:14.101Z,79575.41
2022-12-31T10:43:47.214Z,79557.59
2022-12-31T10:45:26.451Z,79595.22
2022-12-31T10:47:08.280Z,79589.28
2022-12-31T10:48:59.500Z,79609.06
2022-12-31T10:50:47.351Z,79636.75
2022-12-31T10:52:47.455Z,79632.81
2022-12-31T10:54:40.777Z,79674.38
2022-12-31T10:56:26.425Z,79690.19
2022-12-31T10:58:03.970Z,79702.06
2022-12-31T10:59:37.955Z,79721.84
2022-12-31T11:01:16.881Z,79713.94
2022-12-31T11:03:23.449Z,79725.81
2022-12-31T11:04:59.807Z,79737.69
2022-12-31T11:06:45.565Z,79719.88
2022-12-31T11:08:30.814Z,79729.78
2022-12-31T11:10:29.930Z,79713.94
2022-12-31T11:12:21.535Z,79704.03
2022-12-31T11:13:56.819Z,79690.19
2022-12-31T11:15:50.214Z,79686.25
2022-12-31T11:17:32.049Z,79706.03
2022-12-31T11:19:17.024Z,79706.03
2022-12-31T11:21:00.024Z,79721.84
2022-12-31T11:22:39.147Z,79725.81
2022-12-31T11:24:38.734Z,79753.53
2022-12-31T11:26:22.528Z,79757.47
2022-12-31T11:28:13.973Z,79779.25
2022-12-31T11:29:58.666Z,79787.16
2022-12-31T11:31:46.658Z,79781.22
2022-12-31T11:33:34.850Z,79791.13
2022-12-31T11:35:27.674Z,79791.13
2022-12-31T11:37:20.702Z,79801.00
2022-12-31T11:38:58.258Z,79806.94
2022-12-31T11:40:31.266Z,79806.94
2022-12-31T11:42:04.705Z,79808.94
2022-12-31T11:43:37.506Z,79816.84
2022-12-31T11:45:16.150Z,79816.84
2022-12-31T11:46:59.681Z,79818.81
2022-12-31T11:48:37.233Z,79799.03
2022-12-31T11:50:22.555Z,79759.47
2022-12-31T11:52:08.377Z,79715.91
2022-12-31T11:53:44.143Z,79678.31
2022-12-31T11:55:23.766Z,79636.75
2022-12-31T11:57:14.779Z,79611.03
2022-12-31T11:58:50.291Z,79563.53
2022-12-31T12:00:24.471Z,79535.84
2022-12-31T12:02:00.591Z,79525.94
2022-12-31T12:03:33.606Z,79492.31
2022-12-31T12:05:11.139Z,79484.38
2022-12-31T12:06:46.528Z,79472.53
2022-12-31T12:08:19.348Z,79478.44
2022-12-31T12:09:55.088Z,79478.44
2022-12-31T12:11:30.807Z,79490.31
2022-12-31T12:13:12.058Z,79523.97
2022-12-31T12:14:47.179Z,79547.72
2022-12-31T12:16:21.697Z,79537.81
2022-12-31T12:17:55.557Z,79531.88
2022-12-31T12:19:56.455Z,79555.63
2022-12-31T12:21:54.452Z,79527.94
2022-12-31T12:23:28.657Z,79518.03
2022-12-31T12:25:07.197Z,79516.06
2022-12-31T12:26:41.736Z,79516.06
2022-12-31T12:28:44.314Z,79508.13
2022-12-31T12:30:25.765Z,79522.00
2022-12-31T12:32:06.208Z,79520.00
2022-12-31T12:33:44.244Z,79504.19
2022-12-31T12:35:17.422Z,79484.38
2022-12-31T12:36:50.430Z,79492.31
2022-12-31T12:38:23.969Z,79492.31
2022-12-31T12:40:07.283Z,79488.34
2022-12-31T12:41:40.032Z,79482.41
2022-12-31T12:43:23.275Z,79468.56
2022-12-31T12:45:05.012Z,79472.53
2022-12-31T12:46:48.452Z,79456.69
2022-12-31T12:48:29.987Z,79470.53
2022-12-31T12:50:03.674Z,79474.50
2022-12-31T12:51:36.382Z,79496.25
2022-12-31T12:53:24.780Z,79488.34
2022-12-31T12:55:15.997Z,79508.13
2022-12-31T12:57:14.685Z,79494.28
2022-12-31T12:58:57.096Z,79482.41
2022-12-31T13:00:45.314Z,79460.66
2022-12-31T13:02:27.681Z,79452.72
2022-12-31T13:04:35.446Z,79434.91
2022-12-31T13:06:23.451Z,79436.91
2022-12-31T13:08:11.664Z,79425.03
2022-12-31T13:09:44.316Z,79427.00
2022-12-31T13:11:35.380Z,79417.13
2022-12-31T13:13:26.755Z,79430.97
2022-12-31T13:15:07.665Z,79405.25
2022-12-31T13:16:44.062Z,79385.44
2022-12-31T13:18:37.085Z,79377.53
2022-12-31T13:20:23.739Z,79369.63
2022-12-31T13:22:01.915Z,79365.66
2022-12-31T13:23:49.465Z,79347.84
2022-12-31T13:25:28.495Z,79353.78
2022-12-31T13:27:01.060Z,79369.63
2022-12-31T13:28:34.643Z,79365.66
2022-12-31T13:30:14.529Z,79363.69
2022-12-31T13:31:49.231Z,79389.41
2022-12-31T13:33:28.218Z,79389.41
2022-12-31T13:35:07.442Z,79409.19
2022-12-31T13:36:42.074Z,79427.00
2022-12-31T13:38:21.985Z,79421.06
2022-12-31T13:39:58.623Z,79452.72
2022-12-31T13:41:42.819Z,79428.97
2022-12-31T13:43:20.111Z,79438.88
2022-12-31T13:44:59.235Z,79432.94
2022-12-31T13:46:41.213Z,79425.03
2022-12-31T13:48:18.952Z,79428.97
2022-12-31T13:50:05.485Z,79434.91
2022-12-31T13:51:47.511Z,79425.03
2022-12-31T13:53:46.409Z,79450.75
2022-12-31T13:55:24.375Z,79454.72
2022-12-31T13:57:01.321Z,79454.72
2022-12-31T13:58:46.494Z,79452.72
2022-12-31T14:00:37.443Z,79456.69
2022-12-31T14:02:29.424Z,79438.88
2022-12-31T14:04:05.396Z,79446.78
2022-12-31T14:05:42.278Z,79448.78
2022-12-31T14:07:18.190Z,79464.59
2022-12-31T14:08:52.766Z,79468.56
2022-12-31T14:10:48.733Z,79454.72
2022-12-31T14:12:39.813Z,79432.94
2022-12-31T14:14:25.099Z,79456.69
2022-12-31T14:16:00.766Z,79452.72
2022-12-31T14:17:41.950Z,79462.63
2022-12-31T14:19:36.580Z,79454.72
2022-12-31T14:21:24.218Z,79446.78
2022-12-31T14:23:19.810Z,79438.88
2022-12-31T14:24:52.612Z,79425.03
2022-12-31T14:26:45.467Z,79434.91
2022-12-31T14:28:21.903Z,79413.16
2022-12-31T14:29:54.781Z,79407.22
2022-12-31T14:31:43.733Z,79407.22
2022-12-31T14:33:22.267Z,79407.22
2022-12-31T14:35:13.726Z,79428.97
2022-12-31T14:36:58.797Z,79417.13
2022-12-31T14:38:40.255Z,79423.03
2022-12-31T14:40:31.573Z,79401.28
2022-12-31T14:42:04.370Z,79417.13
2022-12-31T14:43:49.369Z,79428.97
2022-12-31T14:45:40.875Z,79427.00
2022-12-31T14:47:24.704Z,79428.97
2022-12-31T14:49:16.673Z,79417.13
2022-12-31T14:50:50.498Z,79409.19
2022-12-31T14:52:26.817Z,79415.13
2022-12-31T14:54:00.041Z,79407.22
2022-12-31T14:55:37.716Z,79413.16
2022-12-31T14:57:25.453Z,79427.00
2022-12-31T14:58:59.538Z,79425.03
2022-12-31T15:00:32.215Z,79428.97
2022-12-31T15:02:24.796Z,79407.22
2022-12-31T15:03:58.403Z,79407.22
2022-12-31T15:05:35.275Z,79425.03
2022-12-31T15:07:19.634Z,79421.06
2022-12-31T15:08:54.977Z,79409.19
2022-12-31T15:10:27.675Z,79393.38
2022-12-31T15:12:11.537Z,79395.34
2022-12-31T15:13:51.465Z,79432.94
2022-12-31T15:15:42.710Z,79397.31
2022-12-31T15:17:25.512Z,79395.34
2022-12-31T15:19:10.325Z,79381.50
2022-12-31T15:20:52.586Z,79381.50
2022-12-31T15:22:37.142Z,79375.56
2022-12-31T15:24:35.875Z,79377.53
2022-12-31T15:26:19.733Z,79387.44
2022-12-31T15:27:52.949Z,79365.66
2022-12-31T15:29:31.937Z,79365.66
2022-12-31T15:31:09.920Z,79357.75
2022-12-31T15:32:47.239Z,79351.81
2022-12-31T15:34:23.332Z,79357.75
2022-12-31T15:35:57.036Z,79357.75
2022-12-31T15:37:35.390Z,79357.75
2022-12-31T15:39:28.436Z,79339.94
2022-12-31T15:41:01.662Z,79334.00
2022-12-31T15:42:49.194Z,79337.97
2022-12-31T15:44:30.367Z,79318.16
2022-12-31T15:46:09.632Z,79322.13
2022-12-31T15:47:46.590Z,79318.16
2022-12-31T15:49:23.353Z,79328.06
2022-12-31T15:50:58.686Z,79306.31
2022-12-31T15:52:43.041Z,79298.38
2022-12-31T15:54:24.511Z,79292.44
2022-12-31T15:55:59.159Z,79262.78
2022-12-31T15:57:41.969Z,79272.66
2022-12-31T15:59:16.542Z,79254.84
2022-12-31T16:01:01.221Z,79278.59
2022-12-31T16:02:34.300Z,79278.59
2022-12-31T16:04:16.684Z,79280.56
2022-12-31T16:05:49.979Z,79254.84
2022-12-31T16:07:23.149Z,79241.00
2022-12-31T16:08:55.984Z,79237.03
2022-12-31T16:10:31.429Z,79223.19
2022-12-31T16:12:12.679Z,79215.28
2022-12-31T16:13:47.420Z,79189.56
2022-12-31T16:15:22.470Z,79169.78
2022-12-31T16:16:57.217Z,79128.22
2022-12-31T16:18:40.049Z,79124.25
2022-12-31T16:20:23.367Z,79108.44
2022-12-31T16:21:57.224Z,79118.31
2022-12-31T16:23:30.043Z,79124.25
2022-12-31T16:25:29.809Z,79122.28
2022-12-31T16:26:57.726Z,79122.28
2022-12-31T16:28:31.721Z,79140.09
2022-12-31T16:30:07.418Z,79134.16
2022-12-31T16:31:40.932Z,79134.16
2022-12-31T16:33:15.414Z,79144.03
2022-12-31T16:34:48.933Z,79159.88
2022-12-31T16:36:23.536Z,79169.78
2022-12-31T16:38:08.453Z,79171.75
2022-12-31T16:40:01.236Z,79195.50
2022-12-31T16:41:43.648Z,79207.38
2022-12-31T16:43:25.232Z,79195.50
2022-12-31T16:44:58.419Z,79171.75
2022-12-31T16:46:32.387Z,79140.09
2022-12-31T16:48:18.941Z,79118.31
2022-12-31T16:49:59.052Z,79134.16
2022-12-31T16:51:33.075Z,79134.16
2022-12-31T16:53:07.865Z,79124.25
2022-12-31T16:54:44.552Z,79140.09
2022-12-31T16:56:23.907Z,79169.78
2022-12-31T16:58:01.981Z,79175.72
2022-12-31T16:59:37.028Z,79159.88
2022-12-31T17:01:12.608Z,79151.97
2022-12-31T17:02:48.567Z,79157.91
2022-12-31T17:04:23.179Z,79128.22
2022-12-31T17:06:06.198Z,79112.38
2022-12-31T17:07:40.803Z,79086.66
2022-12-31T17:09:21.191Z,79074.78
2022-12-31T17:10:54.573Z,79060.94
2022-12-31T17:12:29.204Z,79047.09
2022-12-31T17:14:10.693Z,79037.19
2022-12-31T17:15:44.451Z,79013.47
2022-12-31T17:17:22.385Z,79013.47
2022-12-31T17:18:55.085Z,78985.75
2022-12-31T17:20:29.866Z,78981.81
2022-12-31T17:22:04.817Z,78969.94
2022-12-31T17:23:39.977Z,78962.00
2022-12-31T17:25:23.190Z,78973.88
2022-12-31T17:27:03.011Z,78962.00
2022-12-31T17:28:55.522Z,78969.94
2022-12-31T17:30:28.412Z,78985.75
2022-12-31T17:32:05.836Z,78989.72
2022-12-31T17:33:41.238Z,78997.63
2022-12-31T17:35:34.956Z,79017.41
2022-12-31T17:37:13.037Z,79013.47
2022-12-31T17:38:48.989Z,79035.22
2022-12-31T17:40:50.299Z,79025.31
2022-12-31T17:42:31.363Z,79005.53
2022-12-31T17:44:04.614Z,78991.69
2022-12-31T17:45:38.464Z,78973.88
2022-12-31T17:47:14.473Z,78946.19
2022-12-31T17:48:50.754Z,78944.22
2022-12-31T17:50:24.992Z,78930.34
2022-12-31T17:51:58.330Z,78930.34
2022-12-31T17:53:31.122Z,78926.41
2022-12-31T17:55:03.986Z,78914.53
2022-12-31T17:56:36.879Z,78890.78
2022-12-31T17:58:18.023Z,78886.81
2022-12-31T17:59:51.438Z,78781.97
2022-12-31T18:01:24.656Z,78851.22
2022-12-31T18:02:57.485Z,78863.09
2022-12-31T18:04:30.429Z,78859.13
2022-12-31T18:06:03.048Z,78851.22
2022-12-31T18:07:35.807Z,78853.19
2022-12-31T18:09:08.463Z,78865.06
2022-12-31T18:10:42.306Z,78859.13
2022-12-31T18:12:15.660Z,78863.09
2022-12-31T18:13:48.687Z,78851.22
2022-12-31T18:15:23.703Z,78849.25
2022-12-31T18:16:56.501Z,78837.38
2022-12-31T18:18:30.718Z,78839.34
2022-12-31T18:20:05.406Z,78847.25
2022-12-31T18:21:38.973Z,78853.19
2022-12-31T18:23:30.454Z,78847.25
2022-12-31T18:25:04.470Z,78839.34
2022-12-31T18:26:37.385Z,78833.41
2022-12-31T18:28:10.179Z,78843.31
2022-12-31T18:29:42.861Z,78837.38
2022-12-31T18:31:18.449Z,78835.38
2022-12-31T18:32:51.409Z,78843.31
2022-12-31T18:34:24.040Z,78835.38
2022-12-31T18:36:12.173Z,78841.31
2022-12-31T18:37:45.507Z,78831.44
2022-12-31T18:39:18.322Z,78825.50
2022-12-31T18:40:55.354Z,78819.56
2022-12-31T18:42:28.896Z,78815.59
2022-12-31T18:44:01.720Z,78803.72
2022-12-31T18:45:34.711Z,78805.72
2022-12-31T18:47:14.707Z,78813.63
2022-12-31T18:48:47.543Z,78795.81
2022-12-31T18:50:20.256Z,78795.81
2022-12-31T18:51:54.512Z,78791.88
2022-12-31T18:53:28.010Z,78787.91
2022-12-31T18:55:00.866Z,78785.94
2022-12-31T18:56:33.540Z,78772.06
2022-12-31T18:58:06.886Z,78780.00
2022-12-31T18:59:39.581Z,78783.94
2022-12-31T19:01:32.530Z,78778.00
2022-12-31T19:03:08.478Z,78768.13
2022-12-31T19:04:41.569Z,78762.19
2022-12-31T19:06:14.242Z,78754.28
2022-12-31T19:07:46.826Z,78762.19
2022-12-31T19:09:43.923Z,78760.22
2022-12-31T19:11:14.363Z,78776.03
2022-12-31T19:12:47.225Z,78754.28
2022-12-31T19:14:23.218Z,78734.50
2022-12-31T19:15:55.883Z,78738.44